< < Back
Terminal Aerodrome Forecast


Current Version              Previous Versions:   1  2  3  4  5  6  7  8  9  

Terminal Aerodrome Forecast

119
FTUS42 KFFC 262341
TAFPDK
TAF
KPDK 262341Z 2700/2724 28006KT P6SM FEW100
     FM270300 25006KT P6SM BKN050
     FM271000 29008KT P6SM BKN030
     FM271300 31010KT P6SM BKN020
     FM271700 31012G22KT P6SM BKN035
     FM272000 31012G20KT P6SM SCT040=

Latest METAR

347
SAUS70 KWBC 271500 RRX
MTRPDK
METAR KPDK 271553Z 30010KT 270V340 10SM BKN029 BKN036 OVC046 06/M01
A3028 RMK AO2 SLP262 T00561011


USA.gov is the U.S. government's official web portal to all federal, state and local government web resources and services.